21:51
Airports
History
Links
Donate
Help keep this website running!
PayPal
Bitcoin
This page is community maintained. The information is intended for PC simulator navigation or reference.
Always use approved charts for navigation.
SBFN
Fernando De Noronha
Fernando De Noronha (SBFN)
Fernando de Noronha, Pernambuco, Brazil (53990)
(U)
Lat/Lng:3° 51' 17.74" S / 32° 25' 24.01" W
-3.854928 / -32.423335
Elevation:180'ft / 55mMSL
ID / ICAO:SBFN
Runways:1
Longest:12-30
Asphalt 1,851m / 6,072ft
METAR21:00 GMT 2017-10-16
Altimeter: 30.00
Visibility: 6.2 statute miles
Wind: 9 knots (from 140°)
Temp: 26°c / 79°f
Humidity: 83.6%

METAR: SBFN 162100Z 14009KT 9999 BKN017 26/23 Q1016

(Powered by phpweather)
Airport Radio Frequencies
Tower: 125.9
Runway 12 / 30
Dimensions:1850.7 x 45.1m 6072' x 148'ft
Surface:Asphalt
Edge Lights:Low intensity
Runway 12 [A]Runway 30 [B]
Heading:093°TH 273°TH
Lat:
Lng:
3° 51' 15.66"S
32° 25' 53.94"W
3° 51' 19.82"S
32° 24' 54.07"W
User Notes and Comments
3° 51' 17.74" S / 32° 25' 24.01" W
Distance To
Airport ID:
Nearby Airports
4 Fazenda Bebida Velha 236.4 NM
SNZO WSW 245°
(U) MAXARANGUAPE 238.5 NM
SNXX WSW 243°
(C) Augusto Severo 240.7 NM
SBNT ( WX ) SW 233°
(U) CEARA MIRIM 240.8 NM
SB38 WSW 238°
(U) Ceara - Mirim 240.8 NM
SNOG WSW 238°
4 Severino Lopes 244.9 NM
SJBX SW 232°
(U) Senador Antonio Farias 252.3 NM
SIQA SW 225°
VFR Chart
Flight Planning at SkyVector.com